Time;durP1;ratioP1;P1;durP2;ratioP2;P2;SDS_P1;SDS_P2;PMS_P1;PMS_P2;Temp;Humidity;BMP_temperature;BMP_pressure;BME280_temperature;BME280_humidity;BME280_pressure;Samples;Min_cycle;Max_cycle;Signal;HPM_P1;HPM_P2
2021/07/13 00:00:35;;;;;;;23.95;15.93;;;;;;;23.95;54.53;99924.03;5069731;28;20039;-24
2021/07/13 00:03:01;;;;;;;28.35;17.30;;;;;;;24.34;53.86;99939.59;5087900;28;20028;-24
2021/07/13 00:05:26;;;;;;;19.20;14.35;;;;;;;23.74;55.08;99929.13;5087921;28;20106;-24
2021/07/13 00:07:52;;;;;;;17.98;14.25;;;;;;;23.60;56.36;99946.34;5088020;28;20043;-24
2021/07/13 00:10:20;;;;;;;18.08;12.82;;;;;;;22.89;58.76;99945.22;5087929;28;20024;-24
2021/07/13 00:12:46;;;;;;;17.02;11.77;;;;;;;23.41;56.90;99945.72;5087444;28;20028;-23
2021/07/13 00:15:24;;;;;;;14.45;11.30;;;;;;;22.74;58.89;99933.53;5087253;28;20031;-24
2021/07/13 00:17:53;;;;;;;;;;;;;;;23.34;56.98;99948.06;5088026;28;20119;-24
2021/07/13 00:20:18;;;;;;;15.50;11.45;;;;;;;22.41;59.76;99936.38;5087535;28;19969;-23
2021/07/13 00:22:44;;;;;;;13.88;10.77;;;;;;;22.11;60.82;99942.31;5087473;28;20040;-23
2021/07/13 00:25:10;;;;;;;16.15;11.95;;;;;;;22.18;60.45;99942.72;5087974;28;20039;-24
2021/07/13 00:27:35;;;;;;;16.45;10.85;;;;;;;22.22;59.99;99938.31;5087134;28;20036;-24
2021/07/13 00:30:01;;;;;;;13.32;11.27;;;;;;;22.83;58.11;99934.44;5087768;28;20039;-23
2021/07/13 00:32:27;;;;;;;18.42;11.73;;;;;;;22.74;58.61;99935.44;5087287;28;20030;-23
2021/07/13 00:34:52;;;;;;;14.50;11.02;;;;;;;22.59;58.81;99931.13;5087184;28;20039;-23
2021/07/13 00:37:18;;;;;;;14.35;11.25;;;;;;;22.66;58.77;99936.97;5087587;28;20036;-23
2021/07/13 00:39:43;;;;;;;13.35;11.10;;;;;;;22.82;58.13;99935.56;5087359;28;20039;-23
2021/07/13 00:42:15;;;;;;;16.20;11.23;;;;;;;22.32;59.33;99930.00;5087315;28;20028;-23
2021/07/13 00:44:42;;;;;;;13.88;11.07;;;;;;;22.64;58.76;99939.97;5069209;28;20032;-23
2021/07/13 00:47:07;;;;;;;13.43;12.02;;;;;;;22.41;59.27;99949.13;5069353;28;20028;-23
2021/07/13 00:49:33;;;;;;;14.82;11.68;;;;;;;22.25;59.75;99951.31;5087022;28;20110;-24
2021/07/13 00:51:59;;;;;;;15.60;11.82;;;;;;;21.97;60.35;99947.72;5087266;28;20035;-24
2021/07/13 00:54:25;;;;;;;14.98;12.30;;;;;;;21.80;61.04;99953.69;5087128;28;20055;-23
2021/07/13 00:56:51;;;;;;;19.38;12.38;;;;;;;21.63;61.84;99955.03;5052310;28;20601;-23
2021/07/13 00:59:17;;;;;;;15.45;12.45;;;;;;;21.92;60.95;99967.59;5087224;28;20032;-24
2021/07/13 01:01:42;;;;;;;15.52;12.77;;;;;;;21.80;61.53;99953.69;5086890;28;20395;-23
2021/07/13 01:04:08;;;;;;;18.33;12.40;;;;;;;21.63;61.93;99963.16;5086872;28;20024;-24
2021/07/13 01:06:45;;;;;;;16.63;13.15;;;;;;;21.88;61.25;99953.00;5052427;28;20086;-23
2021/07/13 01:09:17;;;;;;;15.55;12.68;;;;;;;21.98;61.29;99965.63;5086924;28;20028;-23
2021/07/13 01:11:48;;;;;;;13.85;12.32;;;;;;;21.62;62.73;99961.56;5053232;28;20032;-23
2021/07/13 01:14:18;;;;;;;16.10;12.43;;;;;;;21.21;64.17;99962.13;5069593;28;20102;-24
2021/07/13 01:16:47;;;;;;;16.15;12.98;;;;;;;21.56;62.82;99960.03;5048703;28;20051;-23
2021/07/13 01:19:33;;;;;;;14.45;12.90;;;;;;;21.77;61.87;99954.28;5032475;28;20056;-24
2021/07/13 01:22:00;;;;;;;14.32;12.52;;;;;;;21.23;63.98;99957.22;5066645;28;20039;-23
2021/07/13 01:24:53;;;;;;;17.05;14.32;;;;;;;21.28;64.09;99964.47;5032479;28;20101;-23
2021/07/13 01:27:36;;;;;;;15.10;13.48;;;;;;;21.39;63.92;99959.72;5061822;28;20047;-23
2021/07/13 01:30:09;;;;;;;16.90;13.40;;;;;;;22.15;61.55;99949.56;5069980;28;20039;-24
2021/07/13 01:32:35;;;;;;;19.80;13.68;;;;;;;22.72;59.06;99952.06;5086832;28;20043;-23
2021/07/13 01:35:02;;;;;;;16.50;13.57;;;;;;;22.22;60.61;99943.75;5086739;28;20036;-23
2021/07/13 01:37:28;;;;;;;16.90;14.02;;;;;;;21.67;62.78;99950.63;5052092;28;20036;-24
2021/07/13 01:39:54;;;;;;;15.05;13.40;;;;;;;21.21;63.97;99937.72;5069155;28;20080;-24
2021/07/13 01:42:20;;;;;;;14.82;13.15;;;;;;;21.22;64.14;99944.75;5086635;28;20031;-23
2021/07/13 01:44:45;;;;;;;16.25;14.05;;;;;;;21.79;62.75;99952.88;5049933;28;20097;-22
2021/07/13 01:47:11;;;;;;;16.55;13.23;;;;;;;21.41;63.53;99935.81;5068675;28;20032;-23
2021/07/13 01:49:37;;;;;;;16.00;13.98;;;;;;;21.25;64.33;99946.91;5068943;28;20549;-22
2021/07/13 01:52:02;;;;;;;17.92;12.95;;;;;;;21.10;64.87;99960.66;5051688;28;20081;-22
2021/07/13 01:54:28;;;;;;;17.15;14.07;;;;;;;21.12;64.78;99969.31;5045975;28;20057;-22
2021/07/13 01:56:57;;;;;;;18.23;14.10;;;;;;;20.99;65.61;99956.47;5049668;28;20037;-22
2021/07/13 01:59:23;;;;;;;19.63;14.35;;;;;;;20.77;66.11;99965.94;5088196;28;20047;-23
2021/07/13 02:01:49;;;;;;;16.88;14.43;;;;;;;20.57;65.90;99944.47;5055249;28;20024;-23
2021/07/13 02:04:15;;;;;;;16.98;13.77;;;;;;;20.82;65.61;99968.59;5055450;28;20024;-22
2021/07/13 02:06:44;;;;;;;18.40;14.10;;;;;;;21.12;63.87;99949.53;5072328;28;20444;-22
2021/07/13 02:09:12;;;;;;;18.40;14.30;;;;;;;20.81;64.96;99961.56;5071997;28;20507;-23
2021/07/13 02:11:37;;;;;;;18.40;14.23;;;;;;;20.27;64.80;99965.38;5071928;28;20526;-23
2021/07/13 02:14:03;;;;;;;23.85;16.05;;;;;;;19.53;65.43;99937.53;5072016;28;20086;-22
2021/07/13 02:16:28;;;;;;;22.08;16.27;;;;;;;19.64;65.50;99945.31;5090738;28;20483;-22
2021/07/13 02:18:54;;;;;;;24.25;17.25;;;;;;;20.30;64.01;99956.66;5071526;28;20101;-22
2021/07/13 02:21:19;;;;;;;19.33;14.95;;;;;;;20.73;63.53;99943.22;5090315;28;20035;-22
2021/07/13 02:23:45;;;;;;;20.02;14.32;;;;;;;20.52;64.49;99945.34;5089662;28;20028;-23
2021/07/13 02:26:23;;;;;;;19.60;14.10;;;;;;;20.77;64.42;99959.72;5089735;28;20035;-23
2021/07/13 02:28:52;;;;;;;22.27;15.15;;;;;;;21.28;62.54;99962.56;5072871;28;20039;-22
2021/07/13 02:31:24;;;;;;;22.38;14.48;;;;;;;21.41;62.01;99930.38;5055574;28;22322;-22
2021/07/13 02:33:56;;;;;;;22.52;13.98;;;;;;;20.97;63.89;99955.97;5089451;28;20024;-22
2021/07/13 02:36:23;;;;;;;16.65;13.90;;;;;;;20.73;64.94;99959.50;5071656;28;20040;-22
2021/07/13 02:38:49;;;;;;;18.70;14.13;;;;;;;20.88;63.91;99934.09;5072162;28;20542;-23
2021/07/13 02:41:15;;;;;;;22.45;13.43;;;;;;;21.22;63.46;99954.81;5052769;28;20101;-23
2021/07/13 02:43:41;;;;;;;22.35;14.45;;;;;;;21.51;62.03;99962.81;5053785;28;20028;-22
2021/07/13 02:46:06;;;;;;;17.98;14.00;;;;;;;21.64;61.10;99956.66;5071102;28;20031;-22
2021/07/13 02:48:35;;;;;;;17.38;13.75;;;;;;;21.43;61.26;99958.06;5054724;28;20028;-23
2021/07/13 02:51:00;;;;;;;20.70;13.85;;;;;;;21.63;60.65;99965.88;5070928;28;20118;-22
2021/07/13 02:53:26;;;;;;;18.33;14.05;;;;;;;21.67;60.54;99966.91;5054247;28;20060;-22
2021/07/13 02:55:51;;;;;;;21.88;14.32;;;;;;;21.43;61.94;99968.91;5054582;28;20032;-22
2021/07/13 02:58:17;;;;;;;20.85;13.95;;;;;;;21.48;61.54;99973.47;5043344;28;20062;-22
2021/07/13 03:00:42;;;;;;;18.42;14.40;;;;;;;20.73;64.64;99964.91;5050760;28;20024;-22
2021/07/13 03:03:08;;;;;;;20.45;14.50;;;;;;;20.70;64.58;99960.06;5069044;28;20111;-22
2021/07/13 03:05:34;;;;;;;17.27;13.38;;;;;;;20.78;64.36;99966.75;5068833;28;20089;-23
2021/07/13 03:07:59;;;;;;;18.48;13.65;;;;;;;20.38;65.38;99958.75;5050918;28;20510;-22
2021/07/13 03:10:26;;;;;;;22.08;14.65;;;;;;;20.22;66.24;99965.41;5050796;28;20032;-22
2021/07/13 03:12:51;;;;;;;22.88;15.32;;;;;;;20.17;66.16;99962.78;5068515;28;20032;-23
2021/07/13 03:15:24;;;;;;;20.58;14.05;;;;;;;19.92;67.04;99951.09;5050821;28;20557;-23
2021/07/13 03:17:49;;;;;;;21.38;14.98;;;;;;;20.00;66.59;99969.41;5068836;28;20094;-22
2021/07/13 03:20:15;;;;;;;20.90;14.68;;;;;;;19.75;67.97;99973.13;5050741;28;20032;-23
2021/07/13 03:22:45;;;;;;;21.50;15.27;;;;;;;19.70;68.27;99983.16;5050244;28;20031;-22
2021/07/13 03:25:13;;;;;;;29.27;19.58;;;;;;;19.83;67.66;99985.25;5033698;28;20071;-22
2021/07/13 03:27:39;;;;;;;25.10;18.05;;;;;;;19.76;67.67;99974.75;5050880;28;20028;-22
2021/07/13 03:30:05;;;;;;;23.30;16.42;;;;;;;19.73;67.36;99966.38;5033794;28;20036;-22
2021/07/13 03:32:30;;;;;;;19.95;16.20;;;;;;;19.77;67.51;99986.38;5074003;28;20032;-22
2021/07/13 03:34:56;;;;;;;17.05;15.20;;;;;;;19.71;68.19;99972.06;5053478;28;20032;-22
2021/07/13 03:37:21;;;;;;;20.42;15.40;;;;;;;19.82;67.43;99962.00;5054223;28;20089;-22
2021/07/13 03:39:47;;;;;;;18.50;14.68;;;;;;;20.38;65.58;99963.38;5053785;28;20035;-22
2021/07/13 03:42:12;;;;;;;19.80;15.15;;;;;;;20.79;64.09;99973.78;5053874;28;20077;-23
2021/07/13 03:44:39;;;;;;;17.92;13.98;;;;;;;20.37;65.83;99973.41;5070272;28;20031;-23
2021/07/13 03:47:04;;;;;;;23.88;14.95;;;;;;;20.47;65.48;99972.47;5088854;28;20028;-22
2021/07/13 03:49:30;;;;;;;29.13;14.98;;;;;;;20.57;65.09;99963.44;5088182;28;20028;-23
2021/07/13 03:51:55;;;;;;;22.08;14.50;;;;;;;20.97;63.57;99961.38;5069950;28;20032;-22
2021/07/13 03:54:21;;;;;;;16.20;13.38;;;;;;;20.71;64.92;99966.28;5088125;28;20117;-22
2021/07/13 03:56:47;;;;;;;18.50;14.27;;;;;;;20.38;66.62;99972.28;5036534;28;20027;-22
2021/07/13 03:59:12;;;;;;;20.88;13.15;;;;;;;19.90;68.15;99965.97;5087962;28;20494;-23
2021/07/13 04:01:38;;;;;;;18.10;13.35;;;;;;;19.84;68.68;99970.63;5088397;28;20078;-22
2021/07/13 04:04:04;;;;;;;18.83;13.77;;;;;;;20.02;68.53;99967.22;5087961;28;20028;-22
2021/07/13 04:06:30;;;;;;;17.35;13.75;;;;;;;20.19;67.86;99950.56;5088077;28;20024;-22
2021/07/13 04:08:55;;;;;;;21.00;14.55;;;;;;;21.09;64.67;99959.06;5087842;28;20036;-22
2021/07/13 04:11:21;;;;;;;20.55;15.77;;;;;;;21.39;64.00;99965.97;5087694;28;20062;-22
2021/07/13 04:13:46;;;;;;;21.85;15.35;;;;;;;21.05;65.40;99966.16;5069721;28;20040;-22
2021/07/13 04:16:11;;;;;;;19.48;13.93;;;;;;;20.84;67.13;99962.88;5087825;28;20031;-22
2021/07/13 04:18:37;;;;;;;18.45;15.50;;;;;;;20.54;67.41;99950.47;5069807;28;20483;-22
2021/07/13 04:21:03;;;;;;;17.20;14.20;;;;;;;20.72;67.31;99963.31;5087582;28;20380;-22
2021/07/13 04:23:29;;;;;;;19.13;14.85;;;;;;;20.91;66.87;99971.47;5087689;28;20132;-22
2021/07/13 04:25:54;;;;;;;22.25;17.67;;;;;;;21.48;64.57;99976.19;5087694;28;20042;-22
2021/07/13 04:28:20;;;;;;;22.27;19.23;;;;;;;21.99;62.32;99973.47;5087679;28;20032;-22
2021/07/13 04:30:45;;;;;;;29.08;20.92;;;;;;;22.37;61.31;99975.28;5087329;28;20024;-22
2021/07/13 04:33:10;;;;;;;29.33;20.45;;;;;;;22.72;60.17;99970.28;5069122;28;20028;-23
2021/07/13 04:35:36;;;;;;;30.35;21.17;;;;;;;22.22;61.38;99973.63;5087605;28;20043;-22
2021/07/13 04:38:01;;;;;;;21.50;17.65;;;;;;;22.49;60.47;99969.38;5087475;28;20036;-23
2021/07/13 04:40:27;;;;;;;19.33;15.68;;;;;;;22.57;59.92;99971.38;5087428;28;20073;-22
2021/07/13 04:42:52;;;;;;;19.48;15.52;;;;;;;22.75;59.32;99966.97;5087056;28;20031;-22
2021/07/13 04:45:18;;;;;;;24.65;18.48;;;;;;;22.97;59.53;99966.25;5087786;28;20028;-23
2021/07/13 04:47:43;;;;;;;27.83;19.95;;;;;;;22.99;59.99;99972.97;5087192;28;20114;-22
2021/07/13 04:50:09;;;;;;;25.27;19.38;;;;;;;23.18;59.68;99959.28;5087246;28;20035;-22
2021/07/13 04:52:35;;;;;;;23.50;18.75;;;;;;;22.92;60.63;99961.69;5086294;28;20495;-22
2021/07/13 04:55:00;;;;;;;25.02;19.67;;;;;;;23.12;60.53;99965.94;5086990;28;20053;-23
2021/07/13 04:57:27;;;;;;;23.60;19.17;;;;;;;23.22;60.48;99959.47;5087434;28;20411;-22
2021/07/13 04:59:53;;;;;;;24.48;18.60;;;;;;;22.78;61.97;99952.75;5087425;28;20147;-22
2021/07/13 05:02:19;;;;;;;21.65;18.45;;;;;;;22.87;60.71;99943.59;5087107;28;20028;-22
2021/07/13 05:04:44;;;;;;;20.98;16.05;;;;;;;23.14;60.51;99947.41;5086926;28;20036;-22
2021/07/13 05:07:10;;;;;;;18.83;15.75;;;;;;;23.36;58.88;99948.56;5069111;28;20099;-22
2021/07/13 05:09:35;;;;;;;20.27;16.00;;;;;;;23.52;58.31;99947.09;5087079;28;20051;-22
2021/07/13 05:12:00;;;;;;;21.13;16.13;;;;;;;23.65;58.35;99953.59;5086823;28;20028;-23
2021/07/13 05:14:26;;;;;;;21.70;15.88;;;;;;;23.04;59.24;99947.63;5086591;28;20036;-22
2021/07/13 05:16:51;;;;;;;19.10;15.75;;;;;;;23.09;59.40;99955.69;5086842;28;20043;-22
2021/07/13 05:19:17;;;;;;;22.98;16.35;;;;;;;23.02;59.73;99956.06;5087137;28;20039;-22
2021/07/13 05:21:48;;;;;;;17.30;15.50;;;;;;;23.38;58.66;99965.38;5086906;28;20021;-22
2021/07/13 05:24:13;;;;;;;19.73;16.30;;;;;;;23.46;58.83;99965.44;5086604;28;20039;-22
2021/07/13 05:26:39;;;;;;;19.02;15.65;;;;;;;23.53;58.71;99950.63;5086800;28;20036;-22
2021/07/13 05:29:05;;;;;;;21.20;15.60;;;;;;;23.74;58.74;99948.19;5086679;28;20035;-22
2021/07/13 05:31:31;;;;;;;19.90;15.60;;;;;;;24.04;57.91;99963.81;5068745;28;20043;-22
2021/07/13 05:33:57;;;;;;;20.55;14.85;;;;;;;24.00;57.59;99964.75;5088053;28;20036;-22
2021/07/13 05:36:26;;;;;;;18.52;15.25;;;;;;;24.09;57.57;99960.16;5072449;28;20044;-22
2021/07/13 05:38:53;;;;;;;18.48;15.77;;;;;;;24.23;57.16;99968.22;5072381;28;20402;-22
2021/07/13 05:41:22;;;;;;;18.10;15.33;;;;;;;24.43;56.70;99964.16;5090594;28;20102;-23
2021/07/13 05:43:49;;;;;;;19.75;16.00;;;;;;;24.36;56.21;99964.63;5072935;28;20277;-22
2021/07/13 05:46:14;;;;;;;21.92;16.17;;;;;;;24.43;55.49;99948.59;5090154;28;20188;-22
2021/07/13 05:48:40;;;;;;;17.42;14.68;;;;;;;24.46;55.13;99964.34;5090393;28;20483;-23
2021/07/13 05:51:05;;;;;;;19.50;15.38;;;;;;;24.57;55.48;99950.47;5090138;28;20503;-22
2021/07/13 05:53:33;;;;;;;25.25;16.92;;;;;;;24.70;55.00;99974.06;5090145;28;20509;-22
2021/07/13 05:55:58;;;;;;;48.92;34.85;;;;;;;24.75;52.76;99965.75;5072193;28;20080;-22
2021/07/13 05:58:24;;;;;;;20.58;17.05;;;;;;;24.80;53.44;99970.25;5090336;28;20036;-22
2021/07/13 06:00:49;;;;;;;18.38;15.98;;;;;;;24.73;53.85;99959.03;5090348;28;20028;-22
2021/07/13 06:03:15;;;;;;;18.42;14.40;;;;;;;24.38;54.47;99946.03;5090449;28;20028;-22
2021/07/13 06:05:40;;;;;;;18.05;15.18;;;;;;;24.72;54.21;99949.22;5090693;28;20792;-22
2021/07/13 06:08:06;;;;;;;19.42;15.00;;;;;;;25.08;53.51;99951.72;5090126;28;20028;-22
2021/07/13 06:10:31;;;;;;;19.60;14.93;;;;;;;25.42;53.03;99950.97;5072052;28;20031;-22
2021/07/13 06:12:56;;;;;;;29.60;23.15;;;;;;;25.76;52.35;99960.25;5089777;28;20031;-22
2021/07/13 06:15:22;;;;;;;116.10;71.93;;;;;;;25.97;51.49;99957.69;5090104;28;20450;-22
2021/07/13 06:17:48;;;;;;;18.75;14.95;;;;;;;26.11;51.15;99960.22;5090068;28;20035;-23
2021/07/13 06:20:13;;;;;;;19.48;14.68;;;;;;;26.12;51.70;99961.03;5071997;28;20032;-22
2021/07/13 06:22:39;;;;;;;20.45;15.00;;;;;;;26.54;49.67;99962.00;5089718;28;20046;-22
2021/07/13 06:25:05;;;;;;;19.85;14.50;;;;;;;26.68;48.81;99961.00;5090079;28;20055;-22
2021/07/13 06:27:31;;;;;;;16.15;14.43;;;;;;;26.65;49.68;99957.00;5090042;28;20024;-23
2021/07/13 06:29:56;;;;;;;20.10;15.10;;;;;;;26.34;50.51;99952.59;5089714;28;20077;-22
2021/07/13 06:32:22;;;;;;;16.40;14.35;;;;;;;26.59;50.20;99958.31;5089743;28;20105;-22
2021/07/13 06:34:47;;;;;;;18.65;13.65;;;;;;;26.74;50.00;99955.00;5089751;28;20031;-22
2021/07/13 06:37:13;;;;;;;18.10;15.13;;;;;;;26.65;49.67;99957.00;5089801;28;20027;-22
2021/07/13 06:39:38;;;;;;;15.73;13.80;;;;;;;26.56;50.19;99958.94;5089963;28;20488;-22
2021/07/13 06:42:04;;;;;;;17.05;14.23;;;;;;;26.72;49.65;99962.75;5090125;28;20079;-22
2021/07/13 06:44:29;;;;;;;16.00;13.05;;;;;;;27.02;48.95;99965.47;5089124;28;20030;-22
2021/07/13 06:46:55;;;;;;;17.23;13.45;;;;;;;27.04;47.00;99969.47;5089578;28;20407;-23
2021/07/13 06:49:20;;;;;;;15.75;13.35;;;;;;;26.97;48.06;99957.44;5071206;28;20035;-22
2021/07/13 06:51:46;;;;;;;16.38;14.52;;;;;;;27.21;48.05;99938.44;5071056;28;20487;-22
2021/07/13 06:54:11;;;;;;;21.48;14.27;;;;;;;27.21;47.95;99952.13;5088353;28;20087;-22
2021/07/13 06:56:37;;;;;;;20.20;13.63;;;;;;;27.14;47.58;99940.91;5089275;28;20036;-22
2021/07/13 06:59:02;;;;;;;16.25;14.57;;;;;;;27.14;47.73;99940.91;5089144;28;20419;-22
2021/07/13 07:01:28;;;;;;;16.75;13.80;;;;;;;27.10;47.23;99923.56;5089288;28;20036;-22
2021/07/13 07:03:53;;;;;;;16.30;13.75;;;;;;;27.27;47.93;99944.56;5089415;28;20032;-22
2021/07/13 07:06:19;;;;;;;18.38;14.98;;;;;;;27.45;48.54;99928.78;5089400;28;20035;-22
2021/07/13 07:08:44;;;;;;;17.88;15.20;;;;;;;27.61;46.83;99946.19;5089013;28;20407;-22
2021/07/13 07:11:10;;;;;;;17.58;15.32;;;;;;;27.63;47.22;99941.19;5070855;28;20035;-22
2021/07/13 07:13:36;;;;;;;18.73;15.73;;;;;;;27.53;47.40;99936.13;5088942;28;20044;-22
2021/07/13 07:16:01;;;;;;;17.77;14.73;;;;;;;27.87;46.90;99938.88;5089302;28;20178;-22
2021/07/13 07:18:27;;;;;;;16.05;14.35;;;;;;;27.91;45.23;99940.63;5088771;28;20036;-22
2021/07/13 07:20:52;;;;;;;17.95;15.00;;;;;;;27.86;46.92;99935.31;5088694;28;20446;-22
2021/07/13 07:23:18;;;;;;;16.42;14.75;;;;;;;28.15;45.68;99934.38;5088226;28;20038;-22
2021/07/13 07:25:44;;;;;;;16.23;14.52;;;;;;;28.16;45.88;99936.00;5088620;28;20403;-22
2021/07/13 07:28:11;;;;;;;16.00;14.13;;;;;;;28.18;46.02;99921.94;5088144;28;20035;-22
2021/07/13 07:30:36;;;;;;;17.10;14.73;;;;;;;28.41;46.00;99931.31;5070865;28;20031;-22
2021/07/13 07:33:02;;;;;;;15.63;13.45;;;;;;;28.19;45.42;99920.78;5088022;28;20039;-22
2021/07/13 07:35:29;;;;;;;18.65;15.32;;;;;;;28.52;46.03;99919.91;5088559;28;20023;-22
2021/07/13 07:37:54;;;;;;;16.50;13.05;;;;;;;28.34;44.38;99917.41;5088171;28;20059;-22
2021/07/13 07:40:20;;;;;;;16.35;13.23;;;;;;;28.41;44.90;99925.84;5087295;28;20403;-22
2021/07/13 07:42:47;;;;;;;20.33;13.90;;;;;;;28.58;46.16;99913.06;5087817;28;20036;-22
2021/07/13 07:45:13;;;;;;;16.77;13.32;;;;;;;28.67;44.25;99916.50;5088504;28;20032;-22
2021/07/13 07:47:38;;;;;;;16.67;12.40;;;;;;;28.34;44.58;99919.31;5088332;28;20035;-22
2021/07/13 07:50:04;;;;;;;22.55;14.68;;;;;;;28.77;44.44;99916.03;5088317;28;20035;-22
2021/07/13 07:52:30;;;;;;;15.90;13.52;;;;;;;29.15;44.83;99928.53;5087873;28;20028;-22
2021/07/13 07:54:57;;;;;;;16.90;13.07;;;;;;;29.29;43.82;99919.13;5088002;28;20056;-22
2021/07/13 07:57:22;;;;;;;15.45;13.07;;;;;;;29.27;43.58;99915.94;5087754;28;20043;-22
2021/07/13 07:59:48;;;;;;;15.07;12.20;;;;;;;29.18;44.29;99918.84;5088709;28;20720;-23
2021/07/13 08:02:14;;;;;;;16.42;13.23;;;;;;;29.24;43.39;99915.50;5088302;28;20028;-22
2021/07/13 08:04:40;;;;;;;14.10;11.80;;;;;;;29.38;42.28;99917.03;5088171;28;20040;-22
2021/07/13 08:07:05;;;;;;;15.95;11.68;;;;;;;29.85;40.05;99919.13;5087837;28;20384;-23
2021/07/13 08:09:31;;;;;;;11.73;10.45;;;;;;;29.64;38.67;99914.63;5069750;28;20032;-23
2021/07/13 08:11:56;;;;;;;11.38;9.75;;;;;;;29.77;38.35;99917.34;5087717;28;20051;-22
2021/07/13 08:14:21;;;;;;;12.50;9.85;;;;;;;30.02;38.10;99924.28;5088028;28;20039;-22
2021/07/13 08:16:49;;;;;;;12.98;9.93;;;;;;;29.96;39.01;99922.97;5087579;28;20039;-23
2021/07/13 08:19:15;;;;;;;13.18;9.48;;;;;;;29.93;39.82;99915.41;5087752;28;20085;-22
2021/07/13 08:21:40;;;;;;;12.27;10.35;;;;;;;30.13;39.10;99915.53;5069680;28;20020;-22
2021/07/13 08:24:06;;;;;;;10.98;9.77;;;;;;;30.48;37.36;99925.81;5069497;28;20044;-22
2021/07/13 08:26:31;;;;;;;11.52;10.32;;;;;;;30.25;37.05;99915.44;5087673;28;20024;-22
2021/07/13 08:28:57;;;;;;;12.30;9.65;;;;;;;30.37;38.79;99912.63;5086773;28;20039;-22
2021/07/13 08:31:22;;;;;;;12.20;9.80;;;;;;;30.58;38.12;99906.00;5086408;28;20024;-22
2021/07/13 08:33:48;;;;;;;11.50;8.80;;;;;;;30.58;36.96;99915.06;5087567;28;20028;-22
2021/07/13 08:36:13;;;;;;;9.63;7.57;;;;;;;30.10;36.83;99903.28;5087423;28;20028;-22
2021/07/13 08:38:39;;;;;;;12.38;8.63;;;;;;;30.18;39.76;99904.22;5087476;28;20083;-22
2021/07/13 08:41:04;;;;;;;9.75;8.52;;;;;;;30.21;37.80;99911.78;5087653;28;20024;-22
2021/07/13 08:43:30;;;;;;;11.73;8.60;;;;;;;30.40;37.40;99903.66;5086700;28;20028;-22
2021/07/13 08:45:56;;;;;;;15.30;8.98;;;;;;;30.89;37.00;99888.63;5068530;28;20028;-22
2021/07/13 08:48:22;;;;;;;11.00;8.65;;;;;;;30.94;35.05;99904.88;5068888;28;20036;-22
2021/07/13 08:50:48;;;;;;;11.75;9.00;;;;;;;31.10;33.62;99899.34;5086829;28;20032;-22
2021/07/13 08:53:13;;;;;;;56.42;43.95;;;;;;;31.15;35.40;99899.03;5086446;28;20500;-23
2021/07/13 08:55:39;;;;;;;27.60;19.38;;;;;;;31.46;33.96;99899.25;5069233;28;20024;-22
2021/07/13 08:58:04;;;;;;;30.38;22.90;;;;;;;30.91;34.66;99891.03;5087042;28;20032;-23
2021/07/13 09:00:30;;;;;;;18.45;14.88;;;;;;;30.84;35.12;99889.69;5086757;28;20553;-22
2021/07/13 09:03:14;;;;;;;27.80;18.67;;;;;;;31.07;36.04;99900.03;5086690;28;20150;-22
2021/07/13 09:05:40;;;;;;;19.40;15.25;;;;;;;31.08;36.06;99896.13;5086620;28;20036;-23
2021/07/13 09:08:19;;;;;;;19.30;13.10;;;;;;;31.62;34.14;99895.25;5088656;28;20093;-22
2021/07/13 09:10:57;;;;;;;20.55;15.00;;;;;;;31.32;32.86;99888.72;5073094;28;20024;-22
2021/07/13 09:13:27;;;;;;;13.55;10.60;;;;;;;31.94;33.99;99881.25;5091108;28;20035;-22
2021/07/13 09:15:56;;;;;;;11.95;10.20;;;;;;;32.24;31.54;99877.81;5091521;28;20035;-22
2021/07/13 09:18:32;;;;;;;14.80;10.82;;;;;;;32.37;32.96;99900.50;5091134;28;20035;-22
2021/07/13 09:21:10;;;;;;;11.83;9.47;;;;;;;32.27;32.19;99899.16;5091295;28;20027;-22
2021/07/13 09:23:38;;;;;;;14.45;10.60;;;;;;;31.95;32.67;99882.03;5090982;28;20119;-22
2021/07/13 09:26:03;;;;;;;10.45;9.10;;;;;;;32.09;31.98;99893.34;5058046;28;20089;-22
2021/07/13 09:28:29;;;;;;;12.25;9.15;;;;;;;32.42;31.93;99870.59;5085523;28;20572;-22
2021/07/13 09:30:56;;;;;;;12.85;9.25;;;;;;;32.63;35.41;99895.00;5090862;28;20032;-22
2021/07/13 09:33:25;;;;;;;11.23;8.32;;;;;;;32.52;34.01;99887.69;5090567;28;20125;-22
2021/07/13 09:36:11;;;;;;;12.88;7.70;;;;;;;32.55;31.09;99898.81;5072295;28;20058;-22
2021/07/13 09:38:46;;;;;;;9.45;6.18;;;;;;;32.80;27.90;99899.16;5067005;28;20506;-22
2021/07/13 09:41:19;;;;;;;9.45;6.90;;;;;;;32.67;32.02;99883.97;5090560;28;20035;-22
2021/07/13 09:43:54;;;;;;;9.98;8.00;;;;;;;33.36;29.83;99885.66;5072561;28;20110;-22
2021/07/13 09:46:32;;;;;;;9.02;6.35;;;;;;;33.48;28.44;99882.66;5090660;28;20051;-22
2021/07/13 09:49:19;;;;;;;9.07;6.70;;;;;;;33.24;28.68;99878.44;5090322;28;20083;-21
2021/07/13 09:52:04;;;;;;;11.00;6.50;;;;;;;33.44;27.98;99876.28;5090356;28;20032;-22
2021/07/13 09:54:40;;;;;;;13.32;6.78;;;;;;;33.12;28.27;99873.97;5090248;28;20063;-22
2021/07/13 09:57:15;;;;;;;8.80;5.80;;;;;;;33.39;29.03;99868.34;5089979;28;20487;-22
2021/07/13 09:59:45;;;;;;;10.15;5.68;;;;;;;33.34;28.31;99872.22;5084360;28;20040;-22
2021/07/13 10:02:11;;;;;;;9.63;6.22;;;;;;;33.52;27.12;99864.13;5090357;28;20046;-22
2021/07/13 10:04:38;;;;;;;8.02;6.63;;;;;;;33.66;27.35;99859.97;5072055;28;20422;-22
2021/07/13 10:07:09;;;;;;;9.68;7.00;;;;;;;33.79;29.08;99864.00;5071921;28;20032;-22
2021/07/13 10:09:51;;;;;;;9.73;6.60;;;;;;;33.95;28.77;99869.28;5072315;28;20028;-22
2021/07/13 10:12:17;;;;;;;8.35;6.68;;;;;;;34.30;28.14;99866.03;5067329;28;20027;-22
2021/07/13 10:14:47;;;;;;;9.00;6.82;;;;;;;34.34;27.60;99854.97;5079496;28;20484;-22
2021/07/13 10:17:13;;;;;;;13.57;7.70;;;;;;;34.50;25.99;99847.19;5079064;28;20056;-22
2021/07/13 10:19:46;;;;;;;9.77;7.50;;;;;;;34.53;28.42;99862.22;5076765;28;20054;-22
2021/07/13 10:22:13;;;;;;;8.32;7.28;;;;;;;35.17;25.51;99861.78;5061571;28;20105;-22
2021/07/13 10:24:38;;;;;;;9.97;7.47;;;;;;;35.10;24.13;99853.41;5077630;28;20117;-22
2021/07/13 10:27:04;;;;;;;7.88;7.03;;;;;;;34.91;25.54;99854.53;5061279;28;20270;-22
2021/07/13 10:29:32;;;;;;;8.70;7.32;;;;;;;35.06;23.92;99850.63;5080672;28;20032;-22
2021/07/13 10:32:18;;;;;;;9.10;8.05;;;;;;;35.72;24.42;99849.66;5080932;28;20041;-22
2021/07/13 10:34:50;;;;;;;9.25;7.70;;;;;;;35.65;22.66;99836.53;5067217;28;20044;-22
2021/07/13 10:37:27;;;;;;;9.50;7.88;;;;;;;36.16;24.04;99846.47;5089176;28;20040;-22
2021/07/13 10:39:55;;;;;;;9.65;7.35;;;;;;;36.43;24.44;99848.78;5088406;28;20047;-22
2021/07/13 10:42:52;;;;;;;;;;;;;;;36.64;21.45;99845.22;5090059;28;20035;-22
2021/07/13 10:45:27;;;;;;;11.93;7.57;;;;;;;36.57;23.42;99845.19;5033466;28;19908;-22
2021/07/13 10:48:15;;;;;;;9.10;7.20;;;;;;;35.95;25.08;99833.38;5089559;28;20507;-22
2021/07/13 10:50:51;;;;;;;8.90;7.30;;;;;;;36.16;22.51;99820.69;5089086;28;20186;-22
2021/07/13 10:53:24;;;;;;;8.98;7.65;;;;;;;35.90;21.96;99833.78;5089217;28;20064;-22
2021/07/13 10:55:53;;;;;;;9.00;7.10;;;;;;;35.98;22.22;99835.38;5089509;28;20036;-22
2021/07/13 10:58:18;;;;;;;8.88;6.45;;;;;;;36.37;21.90;99820.66;5066304;28;20028;-22
2021/07/13 11:03:33;;;;;;;9.13;6.32;;;;;;;35.75;22.14;99824.66;5089111;28;20089;-22
2021/07/13 11:06:00;;;;;;;9.63;7.40;;;;;;;36.29;22.04;99821.88;5089432;28;20028;-22
2021/07/13 11:08:50;;;;;;;8.95;7.07;;;;;;;36.00;22.11;99824.66;5088932;28;20848;-22
2021/07/13 11:11:22;;;;;;;8.80;6.45;;;;;;;36.15;21.98;99827.44;5089042;28;20042;-22
2021/07/13 11:13:57;;;;;;;9.48;6.55;;;;;;;36.27;20.75;99815.13;5088896;28;20032;-22
2021/07/13 11:16:23;;;;;;;8.85;6.70;;;;;;;36.18;20.79;99818.31;5088862;28;20453;-22
2021/07/13 11:18:48;;;;;;;10.00;6.55;;;;;;;36.94;22.01;99810.53;5088823;28;20449;-21
2021/07/13 11:21:20;;;;;;;6.88;6.15;;;;;;;36.55;20.96;99820.59;5089004;28;20031;-22
2021/07/13 11:23:46;;;;;;;9.13;6.20;;;;;;;36.70;19.45;99810.25;5089184;28;20097;-22
2021/07/13 11:26:12;;;;;;;7.43;6.30;;;;;;;37.07;20.75;99810.88;5088808;28;20104;-22